Time;durP1;ratioP1;P1;durP2;ratioP2;P2;SDS_P1;SDS_P2;PMS_P1;PMS_P2;Temp;Humidity;BMP_temperature;BMP_pressure;BME280_temperature;BME280_humidity;BME280_pressure;Samples;Min_cycle;Max_cycle;Signal;HPM_P1;HPM_P2
2022/07/01 00:04:27;;;;;;;;;18.50;17.50;;;;;;;;6491207;46;8860;-62
2022/07/01 00:10:49;;;;;;;;;19.00;17.25;;;;;;;;6492384;39;8983;-64
2022/07/01 00:16:53;;;;;;;;;15.67;14.67;;;;;;;;6491422;39;8869;-65
2022/07/01 00:22:56;;;;;;;;;18.67;16.33;;;;;;;;6491013;46;8923;-66
2022/07/01 00:28:58;;;;;;;;;18.00;16.75;;;;;;;;6491669;39;9663;-62
2022/07/01 00:35:01;;;;;;;;;18.33;16.33;;;;;;;;6490750;39;8889;-62
2022/07/01 00:41:03;;;;;;;;;17.00;17.00;;;;;;;;6490385;39;8950;-62
2022/07/01 00:47:10;;;;;;;;;21.33;21.00;;;;;;;;6490645;46;8873;-62
2022/07/01 00:53:14;;;;;;;;;20.33;18.67;;;;;;;;6491279;39;8840;-63
2022/07/01 00:59:16;;;;;;;;;20.67;20.67;;;;;;;;6491659;31;9375;-63
2022/07/01 01:05:21;;;;;;;;;18.00;18.00;;;;;;;;6490632;31;8967;-63
2022/07/01 01:11:24;;;;;;;;;21.67;20.00;;;;;;;;6490331;39;8912;-62
2022/07/01 01:17:27;;;;;;;;;19.67;19.67;;;;;;;;6491114;31;8848;-63
2022/07/01 01:23:30;;;;;;;;;22.00;20.67;;;;;;;;6489873;31;9123;-64
2022/07/01 01:29:34;;;;;;;;;23.00;22.00;;;;;;;;6490521;31;8876;-64
2022/07/01 01:35:38;;;;;;;;;24.33;24.00;;;;;;;;6490125;39;8881;-62
2022/07/01 01:42:00;;;;;;;;;20.00;20.00;;;;;;;;5931828;36;10009966;-61
2022/07/01 01:48:02;;;;;;;;;24.00;22.75;;;;;;;;2071804;46;10001082;-62
2022/07/01 01:54:07;;;;;;;;;26.33;23.33;;;;;;;;6487735;39;8958;-65
2022/07/01 02:00:10;;;;;;;;;20.00;20.00;;;;;;;;6487663;31;9058;-62
2022/07/01 02:06:14;;;;;;;;;23.67;23.67;;;;;;;;6487123;39;9015;-62
2022/07/01 02:12:16;;;;;;;;;29.67;28.67;;;;;;;;6486940;39;8939;-63
2022/07/01 02:18:18;;;;;;;;;27.33;24.00;;;;;;;;6487981;39;9549;-63
2022/07/01 02:24:22;;;;;;;;;25.33;25.00;;;;;;;;6490375;47;9001;-62
2022/07/01 02:30:28;;;;;;;;;28.33;25.33;;;;;;;;6490609;39;8850;-62
2022/07/01 02:36:30;;;;;;;;;26.33;25.33;;;;;;;;6490188;39;9489;-62
2022/07/01 02:42:35;;;;;;;;;27.00;25.67;;;;;;;;6491161;39;8916;-63
2022/07/01 02:48:38;;;;;;;;;28.33;22.33;;;;;;;;6490255;39;8864;-63
2022/07/01 02:54:54;;;;;;;;;31.33;29.67;;;;;;;;6490152;31;8895;-62
2022/07/01 03:00:58;;;;;;;;;26.33;26.33;;;;;;;;6490217;39;8860;-63
2022/07/01 03:07:01;;;;;;;;;26.33;26.33;;;;;;;;6489637;39;8868;-62
2022/07/01 03:13:07;;;;;;;;;24.67;24.33;;;;;;;;6491288;39;8950;-61
2022/07/01 03:19:09;;;;;;;;;26.33;25.67;;;;;;;;6492044;39;8967;-63
2022/07/01 03:25:13;;;;;;;;;29.67;22.67;;;;;;;;6493675;31;8860;-62
2022/07/01 03:31:15;;;;;;;;;30.67;29.33;;;;;;;;6492053;39;8865;-62
2022/07/01 03:37:19;;;;;;;;;27.33;24.67;;;;;;;;6492030;39;8864;-66
2022/07/01 03:43:21;;;;;;;;;33.33;29.00;;;;;;;;6492341;39;9599;-64
2022/07/01 03:49:24;;;;;;;;;26.33;26.33;;;;;;;;6490980;39;9048;-62
2022/07/01 03:55:26;;;;;;;;;24.50;24.50;;;;;;;;6492142;31;9582;-62
2022/07/01 04:08:05;;;;;;;;;29.67;29.33;;;;;;;;6491034;46;8603;-61
2022/07/01 04:14:07;;;;;;;;;30.67;29.33;;;;;;;;6493292;31;8950;-60
2022/07/01 22:08:41;;;;;;;;;25.50;23.50;;;;;;;;6313397;31;10000461;-59
2022/07/01 22:14:49;;;;;;;;;21.75;21.75;;;;;;;;6492517;39;9124;-59
2022/07/01 22:20:51;;;;;;;;;23.00;22.00;;;;;;;;6492193;46;8841;-58
2022/07/01 22:26:55;;;;;;;;;25.25;25.25;;;;;;;;6492285;39;9615;-59
2022/07/01 22:32:57;;;;;;;;;23.00;20.50;;;;;;;;6492071;31;8970;-60
2022/07/01 22:39:01;;;;;;;;;23.25;23.25;;;;;;;;6492483;39;9051;-59
2022/07/01 22:45:04;;;;;;;;;23.00;23.00;;;;;;;;6491749;39;8875;-60
2022/07/01 22:51:13;;;;;;;;;24.50;24.50;;;;;;;;6493080;31;8921;-60
2022/07/01 22:57:44;;;;;;;;;26.75;25.00;;;;;;;;6491155;47;8891;-60
2022/07/01 23:03:48;;;;;;;;;19.25;19.25;;;;;;;;6491718;39;8869;-59
2022/07/01 23:10:14;;;;;;;;;27.00;25.00;;;;;;;;6491315;31;8921;-60
2022/07/01 23:16:26;;;;;;;;;29.25;26.50;;;;;;;;6492085;39;8905;-59
2022/07/01 23:22:31;;;;;;;;;21.50;21.25;;;;;;;;6491477;47;8887;-60
2022/07/01 23:28:33;;;;;;;;;23.50;22.50;;;;;;;;6491725;46;8889;-60
2022/07/01 23:34:36;;;;;;;;;24.50;21.50;;;;;;;;6493998;46;8843;-59
2022/07/01 23:40:40;;;;;;;;;26.00;25.25;;;;;;;;6492853;39;8917;-59
2022/07/01 23:46:45;;;;;;;;;22.50;21.00;;;;;;;;6493521;46;8844;-59
2022/07/01 23:52:48;;;;;;;;;19.50;18.50;;;;;;;;6493368;46;8857;-60
2022/07/01 23:58:51;;;;;;;;;19.75;18.75;;;;;;;;6492966;46;8887;-60
